Time;durP1;ratioP1;P1;durP2;ratioP2;P2;SDS_P1;SDS_P2;PMS_P1;PMS_P2;Temp;Humidity;BMP_temperature;BMP_pressure;BME280_temperature;BME280_humidity;BME280_pressure;Samples;Min_cycle;Max_cycle;Signal;HPM_P1;HPM_P2
2022/09/06 00:01:16;;;;;;;1999.90;999.90;;;20.20;93.00;;;;;;5083285;28;20075;-66
2022/09/06 00:03:43;;;;;;;1999.90;999.90;;;20.20;93.00;;;;;;5092278;28;20380;-66
2022/09/06 00:06:13;;;;;;;1999.90;999.90;;;20.10;93.00;;;;;;5080839;28;20035;-66
2022/09/06 00:08:40;;;;;;;1999.90;999.90;;;20.10;93.00;;;;;;5081948;28;20036;-66
2022/09/06 00:11:06;;;;;;;1999.90;999.90;;;20.10;93.10;;;;;;5093007;28;20093;-66
2022/09/06 00:13:32;;;;;;;1999.90;999.90;;;20.00;93.20;;;;;;5093378;28;20036;-66
2022/09/06 00:16:04;;;;;;;1999.90;999.90;;;20.00;93.20;;;;;;5089597;28;20051;-66
2022/09/06 00:18:30;;;;;;;;;;;20.00;93.30;;;;;;5073886;28;20553;-66
2022/09/06 00:20:55;;;;;;;1999.90;999.90;;;19.90;93.40;;;;;;5087174;28;19952;-66
2022/09/06 00:23:21;;;;;;;1999.90;999.90;;;19.80;93.30;;;;;;5094364;28;20031;-66
2022/09/06 00:25:49;;;;;;;1999.90;999.90;;;19.80;93.40;;;;;;5075619;28;20044;-66
2022/09/06 00:28:15;;;;;;;1999.90;999.90;;;19.80;93.50;;;;;;5087544;28;20118;-66
2022/09/06 00:30:41;;;;;;;1999.90;999.90;;;19.80;93.60;;;;;;5094937;28;20071;-66
2022/09/06 00:33:06;;;;;;;1999.90;999.90;;;19.70;93.70;;;;;;5088516;28;20496;-66
2022/09/06 00:35:32;;;;;;;1999.90;999.90;;;19.60;93.90;;;;;;5084537;28;20057;-66
2022/09/06 00:37:59;;;;;;;1999.90;999.90;;;19.60;94.00;;;;;;5088830;28;20051;-66
2022/09/06 00:40:28;;;;;;;1999.90;999.90;;;19.50;94.20;;;;;;5086357;28;20134;-66
2022/09/06 00:42:55;;;;;;;1999.90;999.90;;;19.50;94.50;;;;;;5079531;28;20097;-66
2022/09/06 00:45:21;;;;;;;1999.90;999.90;;;19.50;94.70;;;;;;5085202;28;20051;-67
2022/09/06 00:47:47;;;;;;;1999.90;999.90;;;19.40;94.70;;;;;;5107726;28;20031;-66
2022/09/06 00:50:16;;;;;;;1999.90;999.90;;;19.30;95.00;;;;;;5107926;28;20047;-66
2022/09/06 00:52:45;;;;;;;1999.90;999.90;;;19.20;95.20;;;;;;5098938;28;20043;-66
2022/09/06 00:55:11;;;;;;;1999.90;999.90;;;19.10;95.40;;;;;;5077802;28;20400;-66
2022/09/06 00:57:37;;;;;;;1999.90;999.90;;;19.00;96.20;;;;;;5093964;28;20054;-66
2022/09/06 01:00:06;;;;;;;1999.90;999.90;;;18.90;96.30;;;;;;5088884;28;20083;-65
2022/09/06 01:10:18;;;;;;;1999.90;999.90;;;18.60;97.20;;;;;;5072632;28;20080;-66
2022/09/06 01:12:58;;;;;;;1999.90;999.90;;;18.60;97.60;;;;;;5084153;28;20380;-65
2022/09/06 01:23:17;;;;;;;1999.90;999.90;;;18.30;98.40;;;;;;5089793;28;20536;-66
2022/09/06 01:25:54;;;;;;;1999.90;999.90;;;18.30;98.30;;;;;;5080158;28;20048;-66
2022/09/06 01:28:41;;;;;;;1999.90;999.90;;;18.30;98.50;;;;;;5092428;28;20446;-65
2022/09/06 01:31:36;;;;;;;1999.90;999.90;;;18.30;98.80;;;;;;5094011;28;20102;-65
2022/09/06 01:34:05;;;;;;;1999.90;999.90;;;18.30;98.90;;;;;;5077119;28;20055;-65
2022/09/06 01:36:53;;;;;;;1999.90;999.90;;;18.20;98.90;;;;;;5045833;28;20648;-65
2022/09/06 01:39:32;;;;;;;1999.90;999.90;;;18.20;99.10;;;;;;5079873;28;20073;-66
2022/09/06 01:42:04;;;;;;;1999.90;999.90;;;18.20;99.30;;;;;;5082857;28;20054;-65
2022/09/06 01:44:31;;;;;;;1999.90;999.90;;;18.20;99.60;;;;;;5097480;28;20050;-65
2022/09/06 01:47:28;;;;;;;1999.90;999.90;;;18.20;99.70;;;;;;5088664;28;20075;-65
2022/09/06 01:50:16;;;;;;;1999.90;999.90;;;18.10;99.80;;;;;;5098467;28;20039;-65
2022/09/06 01:53:20;;;;;;;1999.90;999.90;;;18.10;99.80;;;;;;5053875;28;20058;-65
2022/09/06 01:55:52;;;;;;;1999.90;999.90;;;18.10;99.80;;;;;;5054750;28;20794;-65
2022/09/06 01:58:52;;;;;;;1999.90;999.90;;;18.20;99.90;;;;;;5079277;28;20040;-65
2022/09/06 02:01:30;;;;;;;1999.90;999.90;;;18.20;99.90;;;;;;5086601;28;20051;-65
2022/09/06 02:04:19;;;;;;;1999.90;999.90;;;18.20;99.90;;;;;;5091021;28;20036;-65
2022/09/06 02:06:51;;;;;;;1999.90;999.90;;;18.20;99.90;;;;;;5062004;28;20035;-65
2022/09/06 02:09:21;;;;;;;1999.90;999.90;;;18.30;99.90;;;;;;5090285;28;20040;-65
2022/09/06 02:11:58;;;;;;;1999.90;999.90;;;18.30;99.90;;;;;;5085017;28;20043;-66
2022/09/06 02:14:34;;;;;;;1999.90;999.90;;;18.30;99.90;;;;;;5073353;28;20085;-66
2022/09/06 02:17:01;;;;;;;1999.90;999.90;;;18.30;99.90;;;;;;5082497;28;20512;-65
2022/09/06 02:19:32;;;;;;;1999.90;999.90;;;18.30;99.90;;;;;;5064897;28;20040;-66
2022/09/06 02:21:59;;;;;;;1999.90;999.90;;;18.30;99.90;;;;;;5056046;28;20549;-66
2022/09/06 02:24:30;;;;;;;1999.90;999.90;;;18.20;99.90;;;;;;5078000;28;20071;-66
2022/09/06 02:26:56;;;;;;;1999.90;999.90;;;18.20;99.90;;;;;;5090426;28;20036;-66
2022/09/06 02:29:22;;;;;;;1999.90;999.90;;;18.30;99.90;;;;;;5066757;28;20535;-65
2022/09/06 02:32:16;;;;;;;1999.90;999.90;;;18.30;99.90;;;;;;5088617;28;20059;-65
2022/09/06 02:34:42;;;;;;;;;;;18.20;99.90;;;;;;5083995;28;20051;-65
2022/09/06 02:37:09;;;;;;;1999.90;999.90;;;18.20;99.90;;;;;;5083066;28;19951;-66
2022/09/06 02:39:35;;;;;;;1999.90;999.90;;;18.20;99.90;;;;;;5068727;28;20086;-65
2022/09/06 02:42:01;;;;;;;1999.90;999.90;;;18.10;99.90;;;;;;5055861;28;20091;-65
2022/09/06 02:44:26;;;;;;;1999.90;999.90;;;18.10;99.90;;;;;;5088657;28;20035;-65
2022/09/06 02:46:52;;;;;;;1999.90;999.90;;;18.10;99.90;;;;;;5092686;28;20047;-65
2022/09/06 02:49:17;;;;;;;1999.90;999.90;;;18.10;99.90;;;;;;5093502;28;20050;-66
2022/09/06 02:51:43;;;;;;;1999.90;999.90;;;18.10;99.90;;;;;;5096504;28;20114;-66
2022/09/06 02:54:08;;;;;;;1999.90;999.90;;;18.10;99.90;;;;;;5082907;28;20593;-66
2022/09/06 02:56:35;;;;;;;1999.90;999.90;;;18.10;99.90;;;;;;5089256;28;20042;-65
2022/09/06 02:59:04;;;;;;;1999.90;999.90;;;18.00;99.90;;;;;;5069782;28;20040;-65
2022/09/06 03:01:31;;;;;;;1999.90;999.90;;;18.00;99.90;;;;;;5079481;28;20046;-65
2022/09/06 03:03:56;;;;;;;1999.90;999.90;;;18.00;99.90;;;;;;5067963;28;20047;-65
2022/09/06 03:06:22;;;;;;;1999.90;999.90;;;18.00;99.90;;;;;;5095869;28;20115;-66
2022/09/06 03:08:48;;;;;;;1999.90;999.90;;;18.00;99.90;;;;;;5089388;28;20032;-66
2022/09/06 03:11:13;;;;;;;1999.90;999.90;;;18.00;99.90;;;;;;5082822;28;20032;-65
2022/09/06 03:13:39;;;;;;;1999.90;999.90;;;18.00;99.90;;;;;;5075283;28;20040;-66
2022/09/06 03:16:04;;;;;;;1999.90;999.90;;;18.00;99.90;;;;;;5073548;28;20044;-65
2022/09/06 03:18:31;;;;;;;1999.90;999.90;;;18.00;99.90;;;;;;5064150;28;20068;-65
2022/09/06 03:20:57;;;;;;;1999.90;999.90;;;18.00;99.90;;;;;;5085732;28;20042;-65
2022/09/06 03:23:26;;;;;;;1999.90;999.90;;;18.00;99.90;;;;;;5089329;28;20507;-65
2022/09/06 03:25:52;;;;;;;1999.90;999.90;;;18.00;99.90;;;;;;5086097;28;20032;-66
2022/09/06 03:28:18;;;;;;;1999.90;999.90;;;18.00;99.90;;;;;;5088573;28;20038;-65
2022/09/06 03:30:45;;;;;;;1999.90;999.90;;;18.00;99.90;;;;;;5081094;28;20048;-65
2022/09/06 03:33:10;;;;;;;1999.90;999.90;;;18.00;99.90;;;;;;5071871;28;20058;-66
2022/09/06 03:35:36;;;;;;;1999.90;999.90;;;18.00;99.90;;;;;;5087510;28;20040;-66
2022/09/06 03:38:02;;;;;;;1999.90;999.90;;;18.10;99.90;;;;;;5071892;28;20427;-65
2022/09/06 03:40:27;;;;;;;1999.90;999.90;;;18.10;99.90;;;;;;5067406;28;20040;-66
2022/09/06 03:42:53;;;;;;;1999.90;999.90;;;18.00;99.90;;;;;;5084849;28;20127;-66
2022/09/06 03:45:18;;;;;;;1999.90;999.90;;;18.00;99.90;;;;;;5058536;28;20058;-65
2022/09/06 03:47:44;;;;;;;1999.90;999.90;;;18.00;99.90;;;;;;5070627;28;20394;-66
2022/09/06 03:50:10;;;;;;;1999.90;999.90;;;18.00;99.90;;;;;;5088582;28;20075;-65
2022/09/06 03:52:36;;;;;;;1999.90;999.90;;;18.00;99.90;;;;;;5071123;28;20484;-65
2022/09/06 03:55:02;;;;;;;1999.90;999.90;;;18.00;99.90;;;;;;5070657;28;20495;-65
2022/09/06 03:57:28;;;;;;;1999.90;999.90;;;18.10;99.90;;;;;;5072197;28;20046;-65
2022/09/06 03:59:53;;;;;;;1999.90;999.90;;;18.00;99.90;;;;;;5071766;28;20040;-66
2022/09/06 04:02:19;;;;;;;1999.90;999.90;;;18.00;99.90;;;;;;5052472;28;20036;-66
2022/09/06 04:04:44;;;;;;;1999.90;999.90;;;18.00;99.90;;;;;;5070873;28;20120;-65
2022/09/06 04:07:10;;;;;;;1999.90;999.90;;;18.10;99.90;;;;;;5065926;28;20089;-66
2022/09/06 04:09:36;;;;;;;1999.90;999.90;;;18.10;99.90;;;;;;5089089;28;20032;-66
2022/09/06 04:12:03;;;;;;;1999.90;999.90;;;18.00;99.90;;;;;;5072283;28;20086;-66
2022/09/06 04:14:28;;;;;;;1999.90;999.90;;;18.00;99.90;;;;;;5089112;28;20210;-66
2022/09/06 04:16:54;;;;;;;1999.90;999.90;;;18.10;99.90;;;;;;5089686;28;20123;-65
2022/09/06 04:19:20;;;;;;;1999.90;999.90;;;18.10;99.90;;;;;;5067973;28;20032;-66
2022/09/06 04:21:45;;;;;;;1999.90;999.90;;;18.10;99.90;;;;;;5074615;28;20054;-66
2022/09/06 04:24:11;;;;;;;1999.90;999.90;;;18.10;99.90;;;;;;5076200;28;20513;-65
2022/09/06 04:26:37;;;;;;;1999.90;999.90;;;18.10;99.90;;;;;;5051921;28;20119;-65
2022/09/06 04:29:02;;;;;;;1999.90;999.90;;;18.10;99.90;;;;;;5089305;28;20109;-65
2022/09/06 04:31:28;;;;;;;1999.90;999.90;;;18.10;99.90;;;;;;5101370;28;20123;-65
2022/09/06 04:33:53;;;;;;;1999.90;999.90;;;18.10;99.90;;;;;;5088535;28;20123;-66
2022/09/06 04:36:19;;;;;;;1999.90;999.90;;;18.10;99.90;;;;;;5066673;28;20041;-66
2022/09/06 04:38:45;;;;;;;1999.90;999.90;;;18.10;99.90;;;;;;5060784;28;20051;-65
2022/09/06 04:41:13;;;;;;;1999.90;999.90;;;18.00;99.90;;;;;;5070092;28;20046;-65
2022/09/06 04:43:38;;;;;;;1999.90;999.90;;;18.00;99.90;;;;;;5068618;28;20053;-66
2022/09/06 04:46:10;;;;;;;1999.90;999.90;;;18.00;99.90;;;;;;5081340;28;20105;-65
2022/09/06 04:48:36;;;;;;;1999.90;999.90;;;18.00;99.90;;;;;;5061130;28;20102;-65
2022/09/06 04:51:01;;;;;;;1999.90;999.90;;;17.90;99.90;;;;;;5090709;28;20032;-65
2022/09/06 04:53:27;;;;;;;1999.90;999.90;;;17.80;99.90;;;;;;5053354;28;20119;-66
2022/09/06 04:55:55;;;;;;;1999.90;999.90;;;17.80;99.90;;;;;;5069609;28;20051;-66
2022/09/06 04:58:20;;;;;;;1999.90;999.90;;;17.70;99.90;;;;;;5087005;28;20569;-67
2022/09/06 05:00:46;;;;;;;1999.90;999.90;;;17.70;99.90;;;;;;5093839;28;20067;-66
2022/09/06 05:03:12;;;;;;;1999.90;999.90;;;17.60;99.90;;;;;;5088083;28;20445;-66
2022/09/06 05:05:37;;;;;;;1999.90;999.90;;;17.50;99.90;;;;;;5074200;28;20125;-66
2022/09/06 05:08:03;;;;;;;1999.90;999.90;;;17.50;99.90;;;;;;5089439;28;20085;-66
2022/09/06 05:10:29;;;;;;;1999.90;999.90;;;17.40;99.90;;;;;;5075118;28;20487;-66
2022/09/06 05:12:54;;;;;;;1999.90;999.90;;;17.30;99.90;;;;;;5069375;28;20040;-66
2022/09/06 05:15:21;;;;;;;1999.90;999.90;;;17.20;99.90;;;;;;5091953;28;20124;-66
2022/09/06 05:17:47;;;;;;;1999.90;999.90;;;17.10;99.90;;;;;;5088975;28;20051;-66
2022/09/06 05:20:13;;;;;;;1999.90;999.90;;;17.10;99.90;;;;;;5094201;28;20044;-66
2022/09/06 05:22:39;;;;;;;1999.90;999.90;;;17.00;99.90;;;;;;5084976;28;20521;-65
2022/09/06 05:25:06;;;;;;;1999.90;999.90;;;16.90;99.90;;;;;;5067988;28;20771;-65
2022/09/06 05:27:31;;;;;;;1999.90;999.90;;;16.90;99.90;;;;;;5070677;28;20047;-65
2022/09/06 05:29:57;;;;;;;1999.90;999.90;;;16.80;99.90;;;;;;5092816;28;20069;-65
2022/09/06 05:32:23;;;;;;;1999.90;999.90;;;16.80;99.90;;;;;;5098281;28;20503;-65
2022/09/06 05:34:49;;;;;;;1999.90;999.90;;;16.80;99.90;;;;;;5074499;28;20054;-65
2022/09/06 05:37:15;;;;;;;1999.90;999.90;;;16.80;99.90;;;;;;5078725;28;20056;-65
2022/09/06 05:39:40;;;;;;;1999.90;999.90;;;16.80;99.90;;;;;;5071114;28;20399;-65
2022/09/06 05:42:06;;;;;;;1999.90;999.90;;;16.80;99.90;;;;;;5072908;28;20040;-65
2022/09/06 05:44:33;;;;;;;1999.90;999.90;;;16.80;99.90;;;;;;5090401;28;20093;-65
2022/09/06 05:47:00;;;;;;;1999.90;999.90;;;16.80;99.90;;;;;;5073732;28;20079;-65
2022/09/06 05:49:27;;;;;;;1999.90;999.90;;;16.80;99.90;;;;;;5072784;28;20119;-65
2022/09/06 05:51:53;;;;;;;1999.90;999.90;;;16.80;99.90;;;;;;5091234;28;20123;-65
2022/09/06 05:54:18;;;;;;;1999.90;999.90;;;16.80;99.90;;;;;;5069631;28;20126;-65
2022/09/06 05:56:44;;;;;;;1999.90;999.90;;;16.80;99.90;;;;;;5091128;28;20527;-66
2022/09/06 05:59:10;;;;;;;1999.90;999.90;;;16.80;99.90;;;;;;5057024;28;20052;-65
2022/09/06 06:01:35;;;;;;;1999.90;999.90;;;16.90;99.90;;;;;;5054476;28;20484;-65
2022/09/06 06:04:03;;;;;;;1999.90;999.90;;;16.90;99.90;;;;;;5073371;28;20032;-65
2022/09/06 06:06:31;;;;;;;1999.90;999.90;;;16.90;99.90;;;;;;5062788;28;20051;-65
2022/09/06 06:08:57;;;;;;;1999.90;999.90;;;17.00;99.90;;;;;;5090406;28;20047;-65
2022/09/06 06:11:24;;;;;;;1999.90;999.90;;;17.10;99.90;;;;;;5085560;28;20044;-66
2022/09/06 06:13:50;;;;;;;1999.90;999.90;;;17.10;99.90;;;;;;5087532;28;20514;-66
2022/09/06 06:16:18;;;;;;;1999.90;999.90;;;17.10;99.90;;;;;;5058859;28;20040;-66
2022/09/06 06:18:44;;;;;;;1999.90;999.90;;;17.20;99.90;;;;;;5078292;28;20059;-66
2022/09/06 06:21:20;;;;;;;1999.90;999.90;;;17.20;99.90;;;;;;5070204;28;20028;-65
2022/09/06 06:23:50;;;;;;;1999.90;999.90;;;17.30;99.90;;;;;;5088030;28;20150;-65
2022/09/06 06:26:16;;;;;;;1999.90;999.90;;;17.30;99.90;;;;;;5094505;28;20118;-65
2022/09/06 06:28:42;;;;;;;1999.90;999.90;;;17.40;99.90;;;;;;5071943;28;20048;-65
2022/09/06 06:31:10;;;;;;;1999.90;999.90;;;17.40;99.90;;;;;;5062962;28;20159;-65
2022/09/06 06:33:36;;;;;;;1999.90;999.90;;;17.50;99.90;;;;;;5082552;28;20131;-65
2022/09/06 06:36:17;;;;;;;1999.90;999.90;;;17.60;99.90;;;;;;5069109;28;20155;-66
2022/09/06 06:38:44;;;;;;;1999.90;999.90;;;17.60;99.90;;;;;;5090087;28;20380;-66
2022/09/06 06:41:12;;;;;;;1999.90;999.90;;;17.60;99.90;;;;;;5071722;28;20495;-67
2022/09/06 06:43:38;;;;;;;1999.90;999.90;;;17.70;99.90;;;;;;5078144;28;20071;-66
2022/09/06 06:46:09;;;;;;;1999.90;999.90;;;17.70;99.90;;;;;;5061242;28;20072;-65
2022/09/06 06:48:38;;;;;;;1999.90;999.90;;;17.80;99.90;;;;;;5085214;28;20485;-65
2022/09/06 06:51:04;;;;;;;1999.90;999.90;;;17.90;99.90;;;;;;5072259;28;20181;-65
2022/09/06 06:53:29;;;;;;;1999.90;999.90;;;18.00;99.90;;;;;;5084463;28;20044;-66
2022/09/06 06:55:55;;;;;;;1999.90;999.90;;;18.00;99.90;;;;;;5071843;28;20396;-66
2022/09/06 06:58:21;;;;;;;1999.90;999.90;;;18.10;99.90;;;;;;5071683;28;20388;-66
2022/09/06 07:00:46;;;;;;;1999.90;999.90;;;18.10;99.90;;;;;;5071346;28;20390;-66
2022/09/06 07:03:12;;;;;;;1999.90;999.90;;;18.20;99.90;;;;;;5080492;28;20182;-66
2022/09/06 07:05:39;;;;;;;1999.90;999.90;;;18.20;99.90;;;;;;5085726;28;20070;-66
2022/09/06 07:08:05;;;;;;;1999.90;999.90;;;18.20;99.90;;;;;;5068950;28;20127;-66
2022/09/06 07:10:32;;;;;;;1999.90;999.90;;;18.30;99.90;;;;;;5065540;28;20036;-66
2022/09/06 07:12:57;;;;;;;1999.90;999.90;;;18.30;99.90;;;;;;5075161;28;20399;-66
2022/09/06 07:15:23;;;;;;;1999.90;999.90;;;18.30;99.90;;;;;;5078465;28;20043;-66
2022/09/06 07:17:49;;;;;;;1999.90;999.90;;;18.30;99.90;;;;;;5089464;28;20039;-66
2022/09/06 07:20:15;;;;;;;1999.90;999.90;;;18.40;99.90;;;;;;5084797;28;20047;-66
2022/09/06 07:22:40;;;;;;;1999.90;999.90;;;18.40;99.90;;;;;;5086249;28;20047;-66
2022/09/06 07:25:08;;;;;;;1999.90;999.90;;;18.40;99.90;;;;;;5088641;28;20424;-66
2022/09/06 07:27:34;;;;;;;1999.90;999.90;;;18.50;99.90;;;;;;5084212;28;20075;-66
2022/09/06 07:29:59;;;;;;;1999.90;999.90;;;18.50;99.90;;;;;;5089328;28;20476;-66
2022/09/06 07:32:25;;;;;;;1999.90;999.90;;;18.60;99.90;;;;;;5049686;28;20095;-66
2022/09/06 07:34:50;;;;;;;1999.90;999.90;;;18.70;99.90;;;;;;5087972;28;20043;-66
2022/09/06 07:37:16;;;;;;;1999.90;999.90;;;18.90;99.90;;;;;;5065978;28;20050;-67
2022/09/06 07:39:42;;;;;;;1999.90;999.90;;;19.10;99.90;;;;;;5097056;28;20040;-66
2022/09/06 07:42:08;;;;;;;1999.90;999.90;;;19.30;99.90;;;;;;5086681;28;20040;-66
2022/09/06 07:44:33;;;;;;;1999.90;999.90;;;19.50;99.90;;;;;;5061043;28;20403;-66
2022/09/06 07:47:05;;;;;;;1999.90;999.90;;;19.60;99.90;;;;;;5085838;28;20032;-67
2022/09/06 07:49:33;;;;;;;1999.90;999.90;;;19.80;99.90;;;;;;5075270;28;20042;-66
2022/09/06 07:51:59;;;;;;;1999.90;999.90;;;20.00;99.90;;;;;;5058134;28;20510;-67
2022/09/06 07:54:24;;;;;;;1999.90;999.90;;;20.10;99.90;;;;;;5083161;28;20131;-67
2022/09/06 07:56:50;;;;;;;1999.90;999.90;;;20.10;99.90;;;;;;5053785;28;20126;-67
2022/09/06 07:59:16;;;;;;;1999.90;999.90;;;20.20;99.90;;;;;;5083254;28;20044;-67
2022/09/06 08:01:41;;;;;;;1999.90;999.90;;;20.20;99.90;;;;;;5080813;28;20048;-67
2022/09/06 08:04:12;;;;;;;1999.90;999.90;;;20.20;99.90;;;;;;5070027;28;20047;-66
2022/09/06 08:06:40;;;;;;;1999.90;999.90;;;20.20;99.90;;;;;;5082926;28;20044;-66
2022/09/06 08:09:07;;;;;;;1999.90;999.90;;;20.20;99.90;;;;;;5086188;28;20086;-66
2022/09/06 08:11:35;;;;;;;1999.90;999.90;;;20.20;99.90;;;;;;5064924;28;20067;-66
2022/09/06 08:14:03;;;;;;;1999.90;999.90;;;20.30;99.90;;;;;;5070190;28;20100;-66
2022/09/06 08:16:30;;;;;;;1999.90;999.90;;;20.40;99.90;;;;;;5070416;28;20109;-66
2022/09/06 08:18:57;;;;;;;1999.90;999.90;;;20.50;99.90;;;;;;5087653;28;20036;-66
2022/09/06 08:21:25;;;;;;;1999.90;999.90;;;20.60;99.90;;;;;;5057044;28;20036;-66
2022/09/06 08:23:55;;;;;;;1999.90;999.90;;;20.70;99.90;;;;;;5070755;28;20051;-66
2022/09/06 08:26:22;;;;;;;1999.90;999.90;;;20.90;99.90;;;;;;5052407;28;20377;-66
2022/09/06 08:28:56;;;;;;;1999.90;999.90;;;21.00;99.90;;;;;;5053808;28;20063;-66
2022/09/06 08:31:23;;;;;;;1999.90;999.90;;;21.20;99.90;;;;;;5061477;28;20138;-66
2022/09/06 08:33:48;;;;;;;1999.90;999.90;;;21.40;99.90;;;;;;5070365;28;20048;-66
2022/09/06 08:36:14;;;;;;;1999.90;999.90;;;21.60;99.90;;;;;;5069820;28;20059;-66
2022/09/06 08:38:40;;;;;;;1999.90;999.90;;;22.00;99.90;;;;;;5070166;28;20515;-66
2022/09/06 08:41:08;;;;;;;1999.90;999.90;;;22.20;99.90;;;;;;5086319;28;20040;-66
2022/09/06 08:43:35;;;;;;;1999.90;999.90;;;22.30;99.90;;;;;;5085983;28;20040;-66
2022/09/06 08:46:01;;;;;;;1999.90;999.90;;;22.50;99.90;;;;;;5059099;28;20044;-66
2022/09/06 08:48:32;;;;;;;1999.90;999.90;;;22.60;99.90;;;;;;5088466;28;20044;-66
2022/09/06 08:51:21;;;;;;;1999.90;999.90;;;22.80;99.90;;;;;;5086894;28;20047;-67
2022/09/06 08:53:47;;;;;;;1999.90;999.90;;;23.10;99.90;;;;;;5088429;28;20048;-66
2022/09/06 08:56:24;;;;;;;1999.90;999.90;;;24.00;99.90;;;;;;5088317;28;20085;-66
2022/09/06 08:59:05;;;;;;;1999.90;999.90;;;24.70;99.90;;;;;;5077489;28;20102;-67
2022/09/06 09:02:12;;;;;;;1999.90;999.90;;;25.30;99.90;;;;;;5088597;28;20040;-66
2022/09/06 09:04:59;;;;;;;1999.90;999.90;;;25.70;98.90;;;;;;5084311;28;20043;-66
2022/09/06 09:07:40;;;;;;;1999.90;999.90;;;26.30;98.10;;;;;;5088252;28;20761;-67
2022/09/06 09:10:16;;;;;;;1999.90;999.90;;;26.90;97.20;;;;;;5074013;28;20572;-67
2022/09/06 09:12:46;;;;;;;1999.90;999.90;;;27.10;95.20;;;;;;5057153;28;20445;-67
2022/09/06 09:15:15;;;;;;;1999.90;999.90;;;26.60;95.30;;;;;;5091037;28;20552;-67
2022/09/06 09:17:41;;;;;;;1999.90;999.90;;;26.60;95.10;;;;;;5092189;28;20194;-67
2022/09/06 09:20:07;;;;;;;1999.90;999.90;;;27.00;94.60;;;;;;5090052;28;20058;-66
2022/09/06 09:22:35;;;;;;;1999.90;999.90;;;27.50;94.10;;;;;;5068694;28;20040;-67
2022/09/06 09:25:01;;;;;;;1999.90;999.90;;;27.80;93.90;;;;;;5072842;28;20048;-67
2022/09/06 09:27:28;;;;;;;1999.90;999.90;;;27.90;93.40;;;;;;5073634;28;20044;-67
2022/09/06 09:29:53;;;;;;;1999.90;999.90;;;28.30;93.00;;;;;;5078111;28;20040;-67
2022/09/06 09:32:30;;;;;;;1999.90;999.90;;;28.50;92.50;;;;;;5091809;28;20423;-67
2022/09/06 09:35:19;;;;;;;1999.90;999.90;;;28.70;91.60;;;;;;5085393;28;20052;-67
2022/09/06 09:37:45;;;;;;;1999.90;999.90;;;28.90;90.50;;;;;;5102633;28;20146;-67
2022/09/06 09:40:51;;;;;;;1999.90;999.90;;;29.20;90.50;;;;;;5088448;28;20469;-67
2022/09/06 09:43:31;;;;;;;1999.90;999.90;;;29.30;87.70;;;;;;5079438;28;20052;-67
2022/09/06 09:46:09;;;;;;;1999.90;999.90;;;29.30;85.70;;;;;;5070546;28;20451;-67
2022/09/06 09:48:35;;;;;;;1999.90;999.90;;;29.50;86.20;;;;;;5073591;28;20438;-67
2022/09/06 09:51:19;;;;;;;1999.90;999.90;;;29.60;85.90;;;;;;5090169;28;20040;-67
2022/09/06 09:54:03;;;;;;;1999.90;999.90;;;29.90;85.00;;;;;;5093168;28;20032;-67
2022/09/06 09:56:50;;;;;;;1999.90;999.90;;;29.90;82.10;;;;;;5071046;28;20048;-67
2022/09/06 09:59:29;;;;;;;1999.90;999.90;;;29.90;82.20;;;;;;5077164;28;20480;-67
2022/09/06 10:02:00;;;;;;;1999.90;999.90;;;29.90;79.80;;;;;;5076700;28;20617;-67
2022/09/06 10:04:43;;;;;;;1999.90;999.90;;;29.70;80.20;;;;;;5083111;28;20042;-67
2022/09/06 10:07:19;;;;;;;1999.90;999.90;;;29.70;80.40;;;;;;5068103;28;20399;-67
2022/09/06 10:09:59;;;;;;;1999.90;999.90;;;29.60;80.00;;;;;;5061800;28;20044;-67
2022/09/06 10:12:33;;;;;;;1999.90;999.90;;;29.50;78.80;;;;;;5076340;28;20048;-67
2022/09/06 10:14:59;;;;;;;1999.90;999.90;;;29.40;78.00;;;;;;5088792;28;20670;-67
2022/09/06 10:17:32;;;;;;;1999.90;999.90;;;29.30;78.60;;;;;;5069330;28;20040;-67
2022/09/06 10:20:08;;;;;;;1999.90;999.90;;;29.30;78.90;;;;;;5088449;28;20039;-67
2022/09/06 10:23:15;;;;;;;1999.90;999.90;;;29.20;78.10;;;;;;5085814;28;20089;-68
2022/09/06 10:26:18;;;;;;;1999.90;999.90;;;29.20;78.10;;;;;;5064311;28;20056;-67
2022/09/06 10:28:44;;;;;;;1999.90;999.90;;;29.30;79.50;;;;;;5079681;28;20044;-65
2022/09/06 10:31:19;;;;;;;1999.90;999.90;;;29.40;76.30;;;;;;5077227;28;20060;-65
2022/09/06 10:33:58;;;;;;;1999.90;999.90;;;29.30;76.10;;;;;;5052855;28;20595;-65
2022/09/06 10:36:37;;;;;;;1999.90;999.90;;;29.30;77.00;;;;;;5075484;28;20117;-65
2022/09/06 10:39:27;;;;;;;1999.90;999.90;;;29.30;75.60;;;;;;5089888;28;20514;-65
2022/09/06 10:41:58;;;;;;;1999.90;999.90;;;29.30;76.00;;;;;;5069175;28;20396;-65
2022/09/06 10:44:45;;;;;;;1999.90;999.90;;;29.20;73.20;;;;;;5084790;28;20044;-66
2022/09/06 10:47:13;;;;;;;1999.90;999.90;;;28.90;75.10;;;;;;5075420;28;20089;-66
2022/09/06 10:49:45;;;;;;;1999.90;999.90;;;28.80;73.90;;;;;;5059538;28;20036;-65
2022/09/06 10:52:17;;;;;;;1999.90;999.90;;;28.70;75.20;;;;;;5085042;28;20145;-65
2022/09/06 10:54:46;;;;;;;1999.90;999.90;;;28.80;76.20;;;;;;5083080;28;20082;-65
2022/09/06 10:57:40;;;;;;;1999.90;999.90;;;29.00;76.90;;;;;;5079908;28;20048;-65
2022/09/06 11:00:14;;;;;;;1999.90;999.90;;;29.20;75.60;;;;;;5087403;28;20173;-65
2022/09/06 11:02:49;;;;;;;1999.90;999.90;;;29.10;72.80;;;;;;5081377;28;20043;-65
2022/09/06 11:05:31;;;;;;;1999.90;999.90;;;28.80;74.90;;;;;;5090114;28;20051;-65
2022/09/06 11:08:04;;;;;;;1999.90;999.90;;;28.80;76.10;;;;;;5064771;28;20135;-66
2022/09/06 11:10:33;;;;;;;1999.90;999.90;;;28.90;75.30;;;;;;5080762;28;20046;-66
2022/09/06 11:13:04;;;;;;;1999.90;999.90;;;29.00;75.30;;;;;;5048474;28;20095;-65
2022/09/06 11:15:40;;;;;;;1999.90;999.90;;;29.10;76.60;;;;;;5081670;28;20492;-65
2022/09/06 11:18:17;;;;;;;1999.90;999.90;;;29.30;76.10;;;;;;5050524;28;20075;-65
2022/09/06 11:21:21;;;;;;;1999.90;999.90;;;29.50;75.90;;;;;;5041039;28;20044;-65
2022/09/06 11:24:31;;;;;;;1999.90;999.90;;;29.50;73.50;;;;;;5066174;28;20709;-65
2022/09/06 11:27:05;;;;;;;1999.90;999.90;;;29.20;73.20;;;;;;5039712;28;20148;-65
2022/09/06 11:29:33;;;;;;;1999.90;999.90;;;29.20;75.30;;;;;;5081152;28;20039;-65
2022/09/06 11:32:00;;;;;;;1999.90;999.90;;;29.40;74.60;;;;;;5054298;28;20118;-66
2022/09/06 11:34:31;;;;;;;1999.90;999.90;;;29.60;74.00;;;;;;5085428;28;20575;-65
2022/09/06 11:36:59;;;;;;;1999.90;999.90;;;29.60;72.00;;;;;;5068792;28;20056;-65
2022/09/06 11:39:37;;;;;;;1999.90;999.90;;;29.50;71.20;;;;;;5083725;28;20059;-65
2022/09/06 11:42:32;;;;;;;1999.90;999.90;;;29.30;72.30;;;;;;5086212;28;20500;-65
2022/09/06 11:44:57;;;;;;;1999.90;999.90;;;29.50;73.60;;;;;;5042135;28;20047;-65
2022/09/06 11:47:38;;;;;;;1999.90;999.90;;;29.60;72.40;;;;;;5089395;28;20040;-65
2022/09/06 11:50:19;;;;;;;1999.90;999.90;;;29.70;71.90;;;;;;5058119;28;20051;-65
2022/09/06 11:53:07;;;;;;;1999.90;999.90;;;29.70;73.20;;;;;;5071063;28;20467;-65
2022/09/06 11:55:46;;;;;;;1999.90;999.90;;;29.90;72.10;;;;;;5088689;28;20395;-65
2022/09/06 11:58:15;;;;;;;1999.90;999.90;;;29.90;72.80;;;;;;5080900;28;20036;-65
2022/09/06 12:00:42;;;;;;;1999.90;999.90;;;30.10;71.50;;;;;;5068866;28;20372;-66
2022/09/06 12:03:08;;;;;;;1999.90;999.90;;;30.00;71.50;;;;;;5088385;28;20075;-65
2022/09/06 12:06:13;;;;;;;1999.90;999.90;;;29.90;71.20;;;;;;5068204;28;20105;-65
2022/09/06 12:08:39;;;;;;;1999.90;999.90;;;30.00;71.00;;;;;;5066235;28;20040;-65
2022/09/06 12:11:34;;;;;;;1999.90;999.90;;;30.00;70.80;;;;;;5079940;28;20036;-65
2022/09/06 12:14:08;;;;;;;1999.90;999.90;;;30.20;69.20;;;;;;5079677;28;20040;-66
2022/09/06 12:17:03;;;;;;;1999.90;999.90;;;30.10;70.00;;;;;;5068503;28;20052;-66
2022/09/06 12:19:43;;;;;;;1999.90;999.90;;;30.30;70.00;;;;;;5086465;28;20043;-66
2022/09/06 12:22:28;;;;;;;1999.90;999.90;;;30.40;66.70;;;;;;5079611;28;20043;-66
2022/09/06 12:25:04;;;;;;;1999.90;999.90;;;30.40;67.80;;;;;;5075310;28;20040;-66
2022/09/06 12:27:36;;;;;;;1999.90;999.90;;;30.50;68.40;;;;;;5075600;28;20028;-66
2022/09/06 12:30:10;;;;;;;1999.90;999.90;;;30.50;68.20;;;;;;5062467;28;20039;-66
2022/09/06 12:32:44;;;;;;;1999.90;999.90;;;30.60;68.20;;;;;;5057141;28;20056;-66
2022/09/06 12:35:20;;;;;;;1999.90;999.90;;;30.60;66.70;;;;;;5062194;28;20076;-66